Time;durP1;ratioP1;P1;durP2;ratioP2;P2;SDS_P1;SDS_P2;PMS_P1;PMS_P2;Temp;Humidity;BMP_temperature;BMP_pressure;BME280_temperature;BME280_humidity;BME280_pressure;Samples;Min_cycle;Max_cycle;Signal;HPM_P1;HPM_P2
2023/09/13 00:02:12;;;;;;;;;;;;;;;;;;5074000;28;19912;-70
2023/09/13 00:04:38;;;;;;;;;;;;;;;;;;5073684;28;19908;-70
2023/09/13 00:07:04;;;;;;;;;;;;;;;;;;5080804;28;19999;-70
2023/09/13 00:09:30;;;;;;;;;;;;;;;;;;5094110;28;19912;-70
2023/09/13 00:11:56;;;;;;;;;;;;;;;;;;5094010;28;19930;-70
2023/09/13 00:14:22;;;;;;;;;;;;;;;;;;5093801;28;20062;-70
2023/09/13 00:16:50;;;;;;;;;;;;;;;;;;5093848;28;20314;-71
2023/09/13 00:19:16;;;;;;;;;;;;;;;;;;5093921;28;19991;-70
2023/09/13 00:21:42;;;;;;;;;;;;;;;;;;5093906;28;19943;-71
2023/09/13 00:24:08;;;;;;;;;;;;;;;;;;5093677;28;19961;-70
2023/09/13 00:26:34;;;;;;;;;;;;;;;;;;5093797;28;19916;-71
2023/09/13 00:29:00;;;;;;;;;;;;;;;;;;5093807;28;19915;-72
2023/09/13 00:31:26;;;;;;;;;;;;;;;;;;5093736;28;19908;-72
2023/09/13 00:33:52;;;;;;;;;;;;;;;;;;5093379;28;19908;-71
2023/09/13 00:36:18;;;;;;;;;;;;;;;;;;5093695;28;20359;-71
2023/09/13 00:38:44;;;;;;;;;;;;;;;;;;5093610;28;19927;-71
2023/09/13 00:41:10;;;;;;;;;;;;;;;;;;5093551;28;19930;-71
2023/09/13 00:43:35;;;;;;;;;;;;;;;;;;5093276;28;19954;-71
2023/09/13 00:46:02;;;;;;;;;;;;;;;;;;5093353;28;20374;-71
2023/09/13 00:48:28;;;;;;;;;;;;;;;;;;5093303;28;19999;-71
2023/09/13 00:50:54;;;;;;;;;;;;;;;;;;5092630;28;19967;-71
2023/09/13 00:53:20;;;;;;;;;;;;;;;;;;5093136;28;20018;-70
2023/09/13 00:55:46;;;;;;;;;;;;;;;;;;5093344;28;19908;-70
2023/09/13 00:58:12;;;;;;;;;;;;;;;;;;5092998;28;20382;-70
2023/09/13 01:00:38;;;;;;;;;;;;;;;;;;5093149;28;19955;-72
2023/09/13 01:03:04;;;;;;;;;;;;;;;;;;5092863;28;19938;-71
2023/09/13 01:05:29;;;;;;;;;;;;;;;;;;5093050;28;20427;-71
2023/09/13 01:07:55;;;;;;;;;;;;;;;;;;5092931;28;19912;-71
2023/09/13 01:10:21;;;;;;;;;;;;;;;;;;5092858;28;20291;-72
2023/09/13 01:12:47;;;;;;;;;;;;;;;;;;5092918;28;19923;-72
2023/09/13 01:15:13;;;;;;;;;;;;;;;;;;5092742;28;20493;-72
2023/09/13 01:17:42;;;;;;;;;;;;;;;;;;5092780;28;20405;-70
2023/09/13 01:20:09;;;;;;;;;;;;;;;;;;5093003;28;19912;-72
2023/09/13 01:22:35;;;;;;;;;;;;;;;;;;5093312;28;19908;-71
2023/09/13 01:25:01;;;;;;;;;;;;;;;;;;5092607;28;19953;-72
2023/09/13 01:27:27;;;;;;;;;;;;;;;;;;5092612;28;19912;-71
2023/09/13 01:29:53;;;;;;;;;;;;;;;;;;5092865;28;19950;-72
2023/09/13 01:32:19;;;;;;;;;;;;;;;;;;5092517;28;20420;-72
2023/09/13 01:34:45;;;;;;;;;;;;;;;;;;5092624;28;19912;-71
2023/09/13 01:37:11;;;;;;;;;;;;;;;;;;5092565;28;19908;-72
2023/09/13 01:39:37;;;;;;;;;;;;;;;;;;5092793;28;19908;-72
2023/09/13 01:42:03;;;;;;;;;;;;;;;;;;5092646;28;19908;-72
2023/09/13 01:44:29;;;;;;;;;;;;;;;;;;5092279;28;20371;-72
2023/09/13 01:46:55;;;;;;;;;;;;;;;;;;5092218;28;19919;-72
2023/09/13 01:49:21;;;;;;;;;;;;;;;;;;5092480;28;19915;-72
2023/09/13 01:51:46;;;;;;;;;;;;;;;;;;5092504;28;19908;-72
2023/09/13 01:54:12;;;;;;;;;;;;;;;;;;5092241;28;19908;-72
2023/09/13 01:56:38;;;;;;;;;;;;;;;;;;5092154;28;19916;-72
2023/09/13 01:59:04;;;;;;;;;;;;;;;;;;5091179;28;19954;-72
2023/09/13 02:01:30;;;;;;;;;;;;;;;;;;5092077;28;20383;-72
2023/09/13 02:03:56;;;;;;;;;;;;;;;;;;5092003;28;19908;-72
2023/09/13 02:06:22;;;;;;;;;;;;;;;;;;5091986;28;19919;-72
2023/09/13 02:08:48;;;;;;;;;;;;;;;;;;5092010;28;20267;-72
2023/09/13 02:11:14;;;;;;;;;;;;;;;;;;5092091;28;19942;-71
2023/09/13 02:13:39;;;;;;;;;;;;;;;;;;5091873;28;20321;-70
2023/09/13 02:16:07;;;;;;;;;;;;;;;;;;5091942;28;19949;-71
2023/09/13 02:18:33;;;;;;;;;;;;;;;;;;5092159;28;19950;-71
2023/09/13 02:20:59;;;;;;;;;;;;;;;;;;5092249;28;20264;-71
2023/09/13 02:23:25;;;;;;;;;;;;;;;;;;5091933;28;19908;-71
2023/09/13 02:25:51;;;;;;;;;;;;;;;;;;5091955;28;20367;-72
2023/09/13 02:28:17;;;;;;;;;;;;;;;;;;5091788;28;19912;-72
2023/09/13 02:30:43;;;;;;;;;;;;;;;;;;5091833;28;19912;-71
2023/09/13 02:33:09;;;;;;;;;;;;;;;;;;5091777;28;19915;-71
2023/09/13 02:35:35;;;;;;;;;;;;;;;;;;5092010;28;19908;-72
2023/09/13 02:38:01;;;;;;;;;;;;;;;;;;5091870;28;19932;-73
2023/09/13 02:40:27;;;;;;;;;;;;;;;;;;5091835;28;19947;-72
2023/09/13 02:42:53;;;;;;;;;;;;;;;;;;5091796;28;20002;-72
2023/09/13 02:45:19;;;;;;;;;;;;;;;;;;5091607;28;20418;-72
2023/09/13 02:47:44;;;;;;;;;;;;;;;;;;5091595;28;19912;-71
2023/09/13 02:50:10;;;;;;;;;;;;;;;;;;5091995;28;19916;-71
2023/09/13 02:52:36;;;;;;;;;;;;;;;;;;5091748;28;19965;-72
2023/09/13 02:55:05;;;;;;;;;;;;;;;;;;5091665;28;19968;-72
2023/09/13 02:57:31;;;;;;;;;;;;;;;;;;5091509;28;20438;-72
2023/09/13 02:59:57;;;;;;;;;;;;;;;;;;5090220;28;20224;-72
2023/09/13 03:02:23;;;;;;;;;;;;;;;;;;5091875;28;19914;-72
2023/09/13 03:04:49;;;;;;;;;;;;;;;;;;5091451;28;20338;-73
2023/09/13 03:07:15;;;;;;;;;;;;;;;;;;5091583;28;19912;-72
2023/09/13 03:09:41;;;;;;;;;;;;;;;;;;5091507;28;20357;-70
2023/09/13 03:12:06;;;;;;;;;;;;;;;;;;5091636;28;19915;-71
2023/09/13 03:14:32;;;;;;;;;;;;;;;;;;5092900;28;19908;-71
2023/09/13 03:16:58;;;;;;;;;;;;;;;;;;5095305;28;19961;-71
2023/09/13 03:19:24;;;;;;;;;;;;;;;;;;5095572;28;20387;-70
2023/09/13 03:21:50;;;;;;;;;;;;;;;;;;5095047;28;19908;-70
2023/09/13 03:24:16;;;;;;;;;;;;;;;;;;5094706;28;20438;-71
2023/09/13 03:26:42;;;;;;;;;;;;;;;;;;5093515;28;19938;-70
2023/09/13 03:29:08;;;;;;;;;;;;;;;;;;5094995;28;19912;-70
2023/09/13 03:31:36;;;;;;;;;;;;;;;;;;5095181;28;19915;-70
2023/09/13 03:34:02;;;;;;;;;;;;;;;;;;5094608;28;19908;-71
2023/09/13 03:36:28;;;;;;;;;;;;;;;;;;5094746;28;19966;-70
2023/09/13 03:38:54;;;;;;;;;;;;;;;;;;5094853;28;20325;-72
2023/09/13 03:41:20;;;;;;;;;;;;;;;;;;5094882;28;19969;-72
2023/09/13 03:43:46;;;;;;;;;;;;;;;;;;5094308;28;19919;-71
2023/09/13 03:46:12;;;;;;;;;;;;;;;;;;5094616;28;19953;-71
2023/09/13 03:48:38;;;;;;;;;;;;;;;;;;5094600;28;19913;-72
2023/09/13 03:51:04;;;;;;;;;;;;;;;;;;5094554;28;19934;-72
2023/09/13 03:53:29;;;;;;;;;;;;;;;;;;5094370;28;19912;-71
2023/09/13 03:55:56;;;;;;;;;;;;;;;;;;5094765;28;19908;-72
2023/09/13 03:58:22;;;;;;;;;;;;;;;;;;5093010;28;19923;-72
2023/09/13 04:00:48;;;;;;;;;;;;;;;;;;5094416;28;19908;-73
2023/09/13 04:03:14;;;;;;;;;;;;;;;;;;5094125;28;20371;-71
2023/09/13 04:05:40;;;;;;;;;;;;;;;;;;5094356;28;19908;-72
2023/09/13 04:08:06;;;;;;;;;;;;;;;;;;5094279;28;19912;-72
2023/09/13 04:10:32;;;;;;;;;;;;;;;;;;5094363;28;20432;-71
2023/09/13 04:12:58;;;;;;;;;;;;;;;;;;5094807;28;19940;-74
2023/09/13 04:15:24;;;;;;;;;;;;;;;;;;5093940;28;20367;-72
2023/09/13 04:17:50;;;;;;;;;;;;;;;;;;5093963;28;19908;-72
2023/09/13 04:20:16;;;;;;;;;;;;;;;;;;5093934;28;19912;-71
2023/09/13 04:22:42;;;;;;;;;;;;;;;;;;5093902;28;20263;-73
2023/09/13 04:25:08;;;;;;;;;;;;;;;;;;5093601;28;19912;-73
2023/09/13 04:27:34;;;;;;;;;;;;;;;;;;5091935;28;19927;-71
2023/09/13 04:30:00;;;;;;;;;;;;;;;;;;5093499;28;19916;-72
2023/09/13 04:32:26;;;;;;;;;;;;;;;;;;5093694;28;19908;-72
2023/09/13 04:34:51;;;;;;;;;;;;;;;;;;5093642;28;20037;-72
2023/09/13 04:37:17;;;;;;;;;;;;;;;;;;5093482;28;19918;-73
2023/09/13 04:39:43;;;;;;;;;;;;;;;;;;5093589;28;20006;-72
2023/09/13 04:42:09;;;;;;;;;;;;;;;;;;5093546;28;20583;-74
2023/09/13 04:44:35;;;;;;;;;;;;;;;;;;5093351;28;20284;-74
2023/09/13 04:47:01;;;;;;;;;;;;;;;;;;5092096;28;19912;-73
2023/09/13 04:49:27;;;;;;;;;;;;;;;;;;5093433;28;20419;-72
2023/09/13 04:51:53;;;;;;;;;;;;;;;;;;5093252;28;19915;-73
2023/09/13 04:54:22;;;;;;;;;;;;;;;;;;5093011;28;20324;-72
2023/09/13 04:56:48;;;;;;;;;;;;;;;;;;5092960;28;20402;-71
2023/09/13 04:59:14;;;;;;;;;;;;;;;;;;5092811;28;19936;-72
2023/09/13 05:01:40;;;;;;;;;;;;;;;;;;5093042;28;20346;-71
2023/09/13 05:04:06;;;;;;;;;;;;;;;;;;5092772;28;19952;-71
2023/09/13 05:06:32;;;;;;;;;;;;;;;;;;5092692;28;20363;-71
2023/09/13 05:08:58;;;;;;;;;;;;;;;;;;5092922;28;20400;-72
2023/09/13 05:11:24;;;;;;;;;;;;;;;;;;5092924;28;19916;-72
2023/09/13 05:13:50;;;;;;;;;;;;;;;;;;5092584;28;19950;-73
2023/09/13 05:16:19;;;;;;;;;;;;;;;;;;5091207;28;19954;-71
2023/09/13 05:18:45;;;;;;;;;;;;;;;;;;5092772;28;19912;-73
2023/09/13 05:21:11;;;;;;;;;;;;;;;;;;5092484;28;19934;-72
2023/09/13 05:23:37;;;;;;;;;;;;;;;;;;5092297;28;19931;-73
2023/09/13 05:26:03;;;;;;;;;;;;;;;;;;5092441;28;19908;-73
2023/09/13 05:28:33;;;;;;;;;;;;;;;;;;5092398;28;19908;-72
2023/09/13 05:30:59;;;;;;;;;;;;;;;;;;5089932;28;20520;-72
2023/09/13 05:33:25;;;;;;;;;;;;;;;;;;5092120;28;20007;-73
2023/09/13 05:35:51;;;;;;;;;;;;;;;;;;5092468;28;19937;-73
2023/09/13 05:38:17;;;;;;;;;;;;;;;;;;5092780;28;19912;-73
2023/09/13 05:40:43;;;;;;;;;;;;;;;;;;5092362;28;19945;-73
2023/09/13 05:43:09;;;;;;;;;;;;;;;;;;5092003;28;19998;-73
2023/09/13 05:45:34;;;;;;;;;;;;;;;;;;5092122;28;20385;-73
2023/09/13 05:48:02;;;;;;;;;;;;;;;;;;5092247;28;19916;-73
2023/09/13 05:50:28;;;;;;;;;;;;;;;;;;5092365;28;19915;-74
2023/09/13 05:52:53;;;;;;;;;;;;;;;;;;5092086;28;19961;-73
2023/09/13 05:55:19;;;;;;;;;;;;;;;;;;5091866;28;19915;-74
2023/09/13 05:57:46;;;;;;;;;;;;;;;;;;5092383;28;19947;-72
2023/09/13 06:00:12;;;;;;;;;;;;;;;;;;5090984;28;19912;-72
2023/09/13 06:02:38;;;;;;;;;;;;;;;;;;5091998;28;19912;-74
2023/09/13 06:05:04;;;;;;;;;;;;;;;;;;5090301;28;19919;-75
2023/09/13 06:07:30;;;;;;;;;;;;;;;;;;5091914;28;19920;-75
2023/09/13 06:09:58;;;;;;;;;;;;;;;;;;5091952;28;19916;-75
2023/09/13 06:12:24;;;;;;;;;;;;;;;;;;5091846;28;19908;-74
2023/09/13 06:14:53;;;;;;;;;;;;;;;;;;5091913;28;19905;-75
2023/09/13 06:17:19;;;;;;;;;;;;;;;;;;5092756;28;20323;-73
2023/09/13 06:19:45;;;;;;;;;;;;;;;;;;5091703;28;19911;-75
2023/09/13 06:22:12;;;;;;;;;;;;;;;;;;5091911;28;19909;-74
2023/09/13 06:24:38;;;;;;;;;;;;;;;;;;5091609;28;19908;-76
2023/09/13 06:27:04;;;;;;;;;;;;;;;;;;5091557;28;19918;-74
2023/09/13 06:29:30;;;;;;;;;;;;;;;;;;5091607;28;20007;-73
2023/09/13 06:31:56;;;;;;;;;;;;;;;;;;5090450;28;20370;-75
2023/09/13 06:34:22;;;;;;;;;;;;;;;;;;5091372;28;20375;-75
2023/09/13 06:36:51;;;;;;;;;;;;;;;;;;5090124;28;19970;-75
2023/09/13 06:39:16;;;;;;;;;;;;;;;;;;5091799;28;19939;-75
2023/09/13 06:41:42;;;;;;;;;;;;;;;;;;5091541;28;19920;-73
2023/09/13 06:44:09;;;;;;;;;;;;;;;;;;5091250;28;20431;-75
2023/09/13 06:46:35;;;;;;;;;;;;;;;;;;5091583;28;19912;-74
2023/09/13 06:49:01;;;;;;;;;;;;;;;;;;5092628;28;19908;-75
2023/09/13 06:51:27;;;;;;;;;;;;;;;;;;5095474;28;19904;-74
2023/09/13 06:53:53;;;;;;;;;;;;;;;;;;5094698;28;19931;-74
2023/09/13 06:56:18;;;;;;;;;;;;;;;;;;5094585;28;19908;-74
2023/09/13 06:58:44;;;;;;;;;;;;;;;;;;5094878;28;19919;-75
2023/09/13 07:01:10;;;;;;;;;;;;;;;;;;5095088;28;19911;-75
2023/09/13 07:03:36;;;;;;;;;;;;;;;;;;5094703;28;19994;-74
2023/09/13 07:06:02;;;;;;;;;;;;;;;;;;5094619;28;19955;-73
2023/09/13 07:08:28;;;;;;;;;;;;;;;;;;5094734;28;20358;-74
2023/09/13 07:10:54;;;;;;;;;;;;;;;;;;5095050;28;19955;-74
2023/09/13 07:13:20;;;;;;;;;;;;;;;;;;5094937;28;19909;-73
2023/09/13 07:15:46;;;;;;;;;;;;;;;;;;5095049;28;20341;-73
2023/09/13 07:18:12;;;;;;;;;;;;;;;;;;5094415;28;20017;-72
2023/09/13 07:20:38;;;;;;;;;;;;;;;;;;5094563;28;19912;-73
2023/09/13 07:23:04;;;;;;;;;;;;;;;;;;5094633;28;19955;-72
2023/09/13 07:25:29;;;;;;;;;;;;;;;;;;5094933;28;20435;-73
2023/09/13 07:27:55;;;;;;;;;;;;;;;;;;5094815;28;19912;-72
2023/09/13 07:30:23;;;;;;;;;;;;;;;;;;5094745;28;19915;-72
2023/09/13 07:32:49;;;;;;;;;;;;;;;;;;5094637;28;19915;-72
2023/09/13 07:35:15;;;;;;;;;;;;;;;;;;5094616;28;19908;-73
2023/09/13 07:37:41;;;;;;;;;;;;;;;;;;5094810;28;19915;-71
2023/09/13 07:40:07;;;;;;;;;;;;;;;;;;5094953;28;19908;-73
2023/09/13 07:42:33;;;;;;;;;;;;;;;;;;5094556;28;19958;-73
2023/09/13 07:44:59;;;;;;;;;;;;;;;;;;5094153;28;19915;-73
2023/09/13 07:47:24;;;;;;;;;;;;;;;;;;5092896;28;19938;-73
2023/09/13 07:49:50;;;;;;;;;;;;;;;;;;5094308;28;19915;-72
2023/09/13 07:52:16;;;;;;;;;;;;;;;;;;5094412;28;20355;-73
2023/09/13 07:54:43;;;;;;;;;;;;;;;;;;5094071;28;20367;-74
2023/09/13 07:57:09;;;;;;;;;;;;;;;;;;5094170;28;20371;-73
2023/09/13 07:59:34;;;;;;;;;;;;;;;;;;5092369;28;20007;-72
2023/09/13 08:02:00;;;;;;;;;;;;;;;;;;5094110;28;19914;-72
2023/09/13 08:04:26;;;;;;;;;;;;;;;;;;5094041;28;20003;-73
2023/09/13 08:06:52;;;;;;;;;;;;;;;;;;5093964;28;19919;-72
2023/09/13 08:09:18;;;;;;;;;;;;;;;;;;5093908;28;19912;-73
2023/09/13 08:11:45;;;;;;;;;;;;;;;;;;5094172;28;19912;-72
2023/09/13 08:14:10;;;;;;;;;;;;;;;;;;5093955;28;19908;-72
2023/09/13 08:16:36;;;;;;;;;;;;;;;;;;5093932;28;20390;-73
2023/09/13 08:19:02;;;;;;;;;;;;;;;;;;5094097;28;19943;-72
2023/09/13 08:21:28;;;;;;;;;;;;;;;;;;5092868;28;19971;-73
2023/09/13 08:23:54;;;;;;;;;;;;;;;;;;5093419;28;19908;-73
2023/09/13 08:26:20;;;;;;;;;;;;;;;;;;5093798;28;19908;-73
2023/09/13 08:28:46;;;;;;;;;;;;;;;;;;5093870;28;19996;-73
2023/09/13 08:31:12;;;;;;;;;;;;;;;;;;5093977;28;20428;-73
2023/09/13 08:33:37;;;;;;;;;;;;;;;;;;5093389;28;19919;-72
2023/09/13 08:36:04;;;;;;;;;;;;;;;;;;5072433;28;20284;-73
2023/09/13 08:38:30;;;;;;;;;;;;;;;;;;5073688;28;19908;-73
2023/09/13 08:40:56;;;;;;;;;;;;;;;;;;5073846;28;19904;-73
2023/09/13 08:43:22;;;;;;;;;;;;;;;;;;5072956;28;20264;-73
2023/09/13 08:45:48;;;;;;;;;;;;;;;;;;5073117;28;19908;-74
2023/09/13 08:48:14;;;;;;;;;;;;;;;;;;5073078;28;20385;-73
2023/09/13 08:50:40;;;;;;;;;;;;;;;;;;5073051;28;19908;-73
2023/09/13 08:53:05;;;;;;;;;;;;;;;;;;5072933;28;20261;-73
2023/09/13 08:55:31;;;;;;;;;;;;;;;;;;5072891;28;19913;-72
2023/09/13 08:57:57;;;;;;;;;;;;;;;;;;5072755;28;19923;-72
2023/09/13 09:00:23;;;;;;;;;;;;;;;;;;5073005;28;19913;-73
2023/09/13 09:02:49;;;;;;;;;;;;;;;;;;5073031;28;19977;-73
2023/09/13 09:05:15;;;;;;;;;;;;;;;;;;5072794;28;19915;-72
2023/09/13 09:07:41;;;;;;;;;;;;;;;;;;5072769;28;19912;-72
2023/09/13 09:10:11;;;;;;;;;;;;;;;;;;5072913;28;19909;-73
2023/09/13 09:12:37;;;;;;;;;;;;;;;;;;5072338;28;20003;-73
2023/09/13 09:15:03;;;;;;;;;;;;;;;;;;5072388;28;19909;-72
2023/09/13 09:17:29;;;;;;;;;;;;;;;;;;5072404;28;19916;-72
2023/09/13 09:19:55;;;;;;;;;;;;;;;;;;5072545;28;20280;-72
2023/09/13 09:22:21;;;;;;;;;;;;;;;;;;5072313;28;19997;-73
2023/09/13 09:24:46;;;;;;;;;;;;;;;;;;5072244;28;20231;-73
2023/09/13 09:27:12;;;;;;;;;;;;;;;;;;5072212;28;20261;-73
2023/09/13 09:29:42;;;;;;;;;;;;;;;;;;5075757;28;19999;-73
2023/09/13 09:32:08;;;;;;;;;;;;;;;;;;5092448;28;19912;-73
2023/09/13 09:34:35;;;;;;;;;;;;;;;;;;5092251;28;19935;-73
2023/09/13 09:37:01;;;;;;;;;;;;;;;;;;5092568;28;19958;-73
2023/09/13 09:39:27;;;;;;;;;;;;;;;;;;5092561;28;19908;-73
2023/09/13 09:41:53;;;;;;;;;;;;;;;;;;5091924;28;19994;-70
2023/09/13 09:44:20;;;;;;;;;;;;;;;;;;5091245;28;19919;-73
2023/09/13 09:46:46;;;;;;;;;;;;;;;;;;5092431;28;20003;-73
2023/09/13 09:49:12;;;;;;;;;;;;;;;;;;5092270;28;19955;-73
2023/09/13 09:51:38;;;;;;;;;;;;;;;;;;5092237;28;19995;-74
2023/09/13 09:54:04;;;;;;;;;;;;;;;;;;5092024;28;20003;-73
2023/09/13 09:56:32;;;;;;;;;;;;;;;;;;5092027;28;19908;-73
2023/09/13 09:58:58;;;;;;;;;;;;;;;;;;5092458;28;19912;-73
2023/09/13 10:01:24;;;;;;;;;;;;;;;;;;5092063;28;20060;-71
2023/09/13 10:03:50;;;;;;;;;;;;;;;;;;5091899;28;19909;-73
2023/09/13 10:06:16;;;;;;;;;;;;;;;;;;5091764;28;19908;-73
2023/09/13 10:08:42;;;;;;;;;;;;;;;;;;5092196;28;20562;-73
2023/09/13 10:11:08;;;;;;;;;;;;;;;;;;5090496;28;19924;-74
2023/09/13 10:13:34;;;;;;;;;;;;;;;;;;5080941;28;19951;-73
2023/09/13 10:16:00;;;;;;;;;;;;;;;;;;5076227;28;19912;-73
2023/09/13 10:18:27;;;;;;;;;;;;;;;;;;5091975;28;20383;-73
2023/09/13 10:20:53;;;;;;;;;;;;;;;;;;5091817;28;19962;-73
2023/09/13 10:23:19;;;;;;;;;;;;;;;;;;5093274;28;20363;-72
2023/09/13 10:25:44;;;;;;;;;;;;;;;;;;5095884;28;19908;-73
2023/09/13 10:28:10;;;;;;;;;;;;;;;;;;5095909;28;19912;-73
2023/09/13 10:30:36;;;;;;;;;;;;;;;;;;5094252;28;19925;-72
2023/09/13 10:33:03;;;;;;;;;;;;;;;;;;5095639;28;20428;-72
2023/09/13 10:35:32;;;;;;;;;;;;;;;;;;5094467;28;19919;-72
2023/09/13 10:37:58;;;;;;;;;;;;;;;;;;5095900;28;19919;-73
2023/09/13 10:40:24;;;;;;;;;;;;;;;;;;5095977;28;20375;-73
2023/09/13 10:42:50;;;;;;;;;;;;;;;;;;5095834;28;20405;-73
2023/09/13 10:45:19;;;;;;;;;;;;;;;;;;5093658;28;19912;-73
2023/09/13 10:47:45;;;;;;;;;;;;;;;;;;5095674;28;19913;-73
2023/09/13 10:50:12;;;;;;;;;;;;;;;;;;5095497;28;19908;-73
2023/09/13 10:52:38;;;;;;;;;;;;;;;;;;5095527;28;19908;-74
2023/09/13 10:55:06;;;;;;;;;;;;;;;;;;5095238;28;19915;-73
2023/09/13 10:57:32;;;;;;;;;;;;;;;;;;5095296;28;20308;-72
2023/09/13 10:59:58;;;;;;;;;;;;;;;;;;5096149;28;19953;-73
2023/09/13 11:02:24;;;;;;;;;;;;;;;;;;5095483;28;19912;-73
2023/09/13 11:04:50;;;;;;;;;;;;;;;;;;5093654;28;19947;-73
2023/09/13 11:07:16;;;;;;;;;;;;;;;;;;5095569;28;20677;-73
2023/09/13 11:09:42;;;;;;;;;;;;;;;;;;5095394;28;20002;-72
2023/09/13 11:12:08;;;;;;;;;;;;;;;;;;5095302;28;19919;-73
2023/09/13 11:14:34;;;;;;;;;;;;;;;;;;5094949;28;19908;-72
2023/09/13 11:17:00;;;;;;;;;;;;;;;;;;5095035;28;20280;-73
2023/09/13 11:19:27;;;;;;;;;;;;;;;;;;5094829;28;20371;-73
2023/09/13 11:21:57;;;;;;;;;;;;;;;;;;5094967;28;20145;-73
2023/09/13 11:24:23;;;;;;;;;;;;;;;;;;5094706;28;19981;-73
2023/09/13 11:26:49;;;;;;;;;;;;;;;;;;5094759;28;19989;-73
2023/09/13 11:29:15;;;;;;;;;;;;;;;;;;5094653;28;19912;-74
2023/09/13 11:31:41;;;;;;;;;;;;;;;;;;5094895;28;19961;-73
2023/09/13 11:34:07;;;;;;;;;;;;;;;;;;5093979;28;20011;-73
2023/09/13 11:36:33;;;;;;;;;;;;;;;;;;5094179;28;19908;-73
2023/09/13 11:38:59;;;;;;;;;;;;;;;;;;5094396;28;19908;-73
2023/09/13 11:41:25;;;;;;;;;;;;;;;;;;5094541;28;19909;-72
2023/09/13 11:43:51;;;;;;;;;;;;;;;;;;5094412;28;19939;-73
2023/09/13 11:46:17;;;;;;;;;;;;;;;;;;5094193;28;19912;-73
2023/09/13 11:48:43;;;;;;;;;;;;;;;;;;5094413;28;19965;-73
2023/09/13 11:51:09;;;;;;;;;;;;;;;;;;5094103;28;20295;-73
2023/09/13 11:53:35;;;;;;;;;;;;;;;;;;5093909;28;19908;-74
2023/09/13 11:56:02;;;;;;;;;;;;;;;;;;5092886;28;19934;-73
2023/09/13 11:58:28;;;;;;;;;;;;;;;;;;5094265;28;20314;-74
2023/09/13 12:00:55;;;;;;;;;;;;;;;;;;5093843;28;19908;-74
2023/09/13 12:03:21;;;;;;;;;;;;;;;;;;5093621;28;19912;-72
2023/09/13 12:05:47;;;;;;;;;;;;;;;;;;5093724;28;19995;-72
2023/09/13 12:08:13;;;;;;;;;;;;;;;;;;5093528;28;19912;-72
2023/09/13 12:10:39;;;;;;;;;;;;;;;;;;5094175;28;19912;-72
2023/09/13 12:13:05;;;;;;;;;;;;;;;;;;5093697;28;19908;-73
2023/09/13 12:15:30;;;;;;;;;;;;;;;;;;5093813;28;19908;-72
2023/09/13 12:17:56;;;;;;;;;;;;;;;;;;5093916;28;19912;-72
2023/09/13 12:20:22;;;;;;;;;;;;;;;;;;5093445;28;19950;-72
2023/09/13 12:22:48;;;;;;;;;;;;;;;;;;5093830;28;19918;-72
2023/09/13 12:25:14;;;;;;;;;;;;;;;;;;5093594;28;19908;-72
2023/09/13 12:27:40;;;;;;;;;;;;;;;;;;5093623;28;19920;-72
2023/09/13 12:30:07;;;;;;;;;;;;;;;;;;5093758;28;19908;-72
2023/09/13 12:32:32;;;;;;;;;;;;;;;;;;5093657;28;19908;-73
2023/09/13 12:34:58;;;;;;;;;;;;;;;;;;5093537;28;19919;-73
2023/09/13 12:37:24;;;;;;;;;;;;;;;;;;5093474;28;19909;-72
2023/09/13 12:39:50;;;;;;;;;;;;;;;;;;5093514;28;19915;-73
2023/09/13 12:42:18;;;;;;;;;;;;;;;;;;5093402;28;20274;-72
2023/09/13 12:44:47;;;;;;;;;;;;;;;;;;5092705;28;19916;-72
2023/09/13 12:47:12;;;;;;;;;;;;;;;;;;5092197;28;19916;-72
2023/09/13 12:49:38;;;;;;;;;;;;;;;;;;5092376;28;19912;-72
2023/09/13 12:52:05;;;;;;;;;;;;;;;;;;5091528;28;19971;-73
2023/09/13 12:54:31;;;;;;;;;;;;;;;;;;5091552;28;19916;-73
2023/09/13 12:56:57;;;;;;;;;;;;;;;;;;5091057;28;19912;-74
2023/09/13 12:59:23;;;;;;;;;;;;;;;;;;5091334;28;20018;-73
2023/09/13 13:01:49;;;;;;;;;;;;;;;;;;5091168;28;19916;-72
2023/09/13 13:04:16;;;;;;;;;;;;;;;;;;5091097;28;19961;-72
2023/09/13 13:06:41;;;;;;;;;;;;;;;;;;5091153;28;19912;-72
2023/09/13 13:09:08;;;;;;;;;;;;;;;;;;5091876;28;19969;-73
2023/09/13 13:11:34;;;;;;;;;;;;;;;;;;5074706;28;19956;-73
2023/09/13 13:14:00;;;;;;;;;;;;;;;;;;5092543;28;19908;-73
2023/09/13 13:16:27;;;;;;;;;;;;;;;;;;5092542;28;20430;-75
2023/09/13 13:18:52;;;;;;;;;;;;;;;;;;5092443;28;19911;-73
2023/09/13 13:21:18;;;;;;;;;;;;;;;;;;5092616;28;20340;-73
2023/09/13 13:23:46;;;;;;;;;;;;;;;;;;5092558;28;19908;-73
2023/09/13 13:26:11;;;;;;;;;;;;;;;;;;5092660;28;20000;-72
2023/09/13 13:28:37;;;;;;;;;;;;;;;;;;5092515;28;20353;-73
2023/09/13 13:31:05;;;;;;;;;;;;;;;;;;5092499;28;20374;-73
2023/09/13 13:33:31;;;;;;;;;;;;;;;;;;5092349;28;19911;-73
2023/09/13 13:35:58;;;;;;;;;;;;;;;;;;5092438;28;19908;-73
2023/09/13 13:38:23;;;;;;;;;;;;;;;;;;5092496;28;19904;-72
2023/09/13 13:40:49;;;;;;;;;;;;;;;;;;5092274;28;19961;-73
2023/09/13 13:43:15;;;;;;;;;;;;;;;;;;5092080;28;20291;-72
2023/09/13 13:45:41;;;;;;;;;;;;;;;;;;5092269;28;20302;-72
2023/09/13 13:48:07;;;;;;;;;;;;;;;;;;5092406;28;19912;-72
2023/09/13 13:50:33;;;;;;;;;;;;;;;;;;5092382;28;20025;-73
2023/09/13 13:52:59;;;;;;;;;;;;;;;;;;5092165;28;19962;-72
2023/09/13 13:55:25;;;;;;;;;;;;;;;;;;5092098;28;19999;-73
2023/09/13 13:57:51;;;;;;;;;;;;;;;;;;5091173;28;19917;-72
2023/09/13 14:00:16;;;;;;;;;;;;;;;;;;5092246;28;19908;-73
2023/09/13 14:02:42;;;;;;;;;;;;;;;;;;5074023;28;19915;-73
2023/09/13 14:05:08;;;;;;;;;;;;;;;;;;5091928;28;20351;-72
2023/09/13 14:07:34;;;;;;;;;;;;;;;;;;5091739;28;19912;-73
2023/09/13 14:10:02;;;;;;;;;;;;;;;;;;5091239;28;20339;-71
2023/09/13 14:12:28;;;;;;;;;;;;;;;;;;5091854;28;20345;-73
2023/09/13 14:14:55;;;;;;;;;;;;;;;;;;5091561;28;19999;-73
2023/09/13 14:17:21;;;;;;;;;;;;;;;;;;5091722;28;19904;-72
2023/09/13 14:19:47;;;;;;;;;;;;;;;;;;5092012;28;20000;-72
2023/09/13 14:22:13;;;;;;;;;;;;;;;;;;5092154;28;20325;-73
2023/09/13 14:24:39;;;;;;;;;;;;;;;;;;5091248;28;19912;-73
2023/09/13 14:27:05;;;;;;;;;;;;;;;;;;5091633;28;19942;-72
2023/09/13 14:29:31;;;;;;;;;;;;;;;;;;5091784;28;19909;-72
2023/09/13 14:32:00;;;;;;;;;;;;;;;;;;5091812;28;19905;-72
2023/09/13 14:34:26;;;;;;;;;;;;;;;;;;5091468;28;20432;-72
2023/09/13 14:36:52;;;;;;;;;;;;;;;;;;5091579;28;20025;-72
2023/09/13 14:39:18;;;;;;;;;;;;;;;;;;5091732;28;20030;-72
2023/09/13 14:41:50;;;;;;;;;;;;;;;;;;5091559;28;19948;-71
2023/09/13 14:44:16;;;;;;;;;;;;;;;;;;5091520;28;20386;-72
2023/09/13 14:46:42;;;;;;;;;;;;;;;;;;5091607;28;19908;-72
2023/09/13 14:49:08;;;;;;;;;;;;;;;;;;5091747;28;19912;-73
2023/09/13 14:51:34;;;;;;;;;;;;;;;;;;5091737;28;19970;-71
2023/09/13 14:54:00;;;;;;;;;;;;;;;;;;5092567;28;20371;-72
2023/09/13 14:56:26;;;;;;;;;;;;;;;;;;5091240;28;19912;-73
2023/09/13 14:58:51;;;;;;;;;;;;;;;;;;5091755;28;19908;-73
2023/09/13 15:01:17;;;;;;;;;;;;;;;;;;5091866;28;19931;-72
2023/09/13 15:03:43;;;;;;;;;;;;;;;;;;5091713;28;19920;-73
2023/09/13 15:06:11;;;;;;;;;;;;;;;;;;5091642;28;19908;-72
2023/09/13 15:08:37;;;;;;;;;;;;;;;;;;5091254;28;19912;-72
2023/09/13 15:11:03;;;;;;;;;;;;;;;;;;5093992;28;19916;-72
2023/09/13 15:13:29;;;;;;;;;;;;;;;;;;5094682;28;19919;-73
2023/09/13 15:15:54;;;;;;;;;;;;;;;;;;5095049;28;20294;-73
2023/09/13 15:18:20;;;;;;;;;;;;;;;;;;5095250;28;19912;-73
2023/09/13 15:20:46;;;;;;;;;;;;;;;;;;5095054;28;19979;-73
2023/09/13 15:23:12;;;;;;;;;;;;;;;;;;5094623;28;19950;-73
2023/09/13 15:25:38;;;;;;;;;;;;;;;;;;5095137;28;20015;-72
2023/09/13 15:28:04;;;;;;;;;;;;;;;;;;5094824;28;19965;-73
2023/09/13 15:30:30;;;;;;;;;;;;;;;;;;5094671;28;19946;-73
2023/09/13 15:32:56;;;;;;;;;;;;;;;;;;5094624;28;19995;-71
2023/09/13 15:35:22;;;;;;;;;;;;;;;;;;5094417;28;19908;-73
2023/09/13 15:37:48;;;;;;;;;;;;;;;;;;5094409;28;20015;-73
2023/09/13 15:40:14;;;;;;;;;;;;;;;;;;5094832;28;19961;-71
2023/09/13 15:42:40;;;;;;;;;;;;;;;;;;5094686;28;19908;-72
2023/09/13 15:45:05;;;;;;;;;;;;;;;;;;5093482;28;19908;-72
2023/09/13 15:47:31;;;;;;;;;;;;;;;;;;5094680;28;19919;-72
2023/09/13 15:49:58;;;;;;;;;;;;;;;;;;5094685;28;20401;-71
2023/09/13 15:52:24;;;;;;;;;;;;;;;;;;5094555;28;19908;-73
2023/09/13 15:54:50;;;;;;;;;;;;;;;;;;5075789;28;19959;-73
2023/09/13 15:57:18;;;;;;;;;;;;;;;;;;5094192;28;20383;-73
2023/09/13 15:59:44;;;;;;;;;;;;;;;;;;5094229;28;20386;-72
2023/09/13 16:02:10;;;;;;;;;;;;;;;;;;5094520;28;20014;-73
2023/09/13 16:04:36;;;;;;;;;;;;;;;;;;5094113;28;19934;-74
2023/09/13 16:07:02;;;;;;;;;;;;;;;;;;5094227;28;19916;-72
2023/09/13 16:09:28;;;;;;;;;;;;;;;;;;5094306;28;19912;-72
2023/09/13 16:11:54;;;;;;;;;;;;;;;;;;5094059;28;19939;-72
2023/09/13 16:14:20;;;;;;;;;;;;;;;;;;5093820;28;19908;-72
2023/09/13 16:16:46;;;;;;;;;;;;;;;;;;5094048;28;19982;-72
2023/09/13 16:19:12;;;;;;;;;;;;;;;;;;5094003;28;19915;-72
2023/09/13 16:21:38;;;;;;;;;;;;;;;;;;5093436;28;19995;-73
2023/09/13 16:24:04;;;;;;;;;;;;;;;;;;5093898;28;19908;-73
2023/09/13 16:26:29;;;;;;;;;;;;;;;;;;5093625;28;20371;-73
2023/09/13 16:28:56;;;;;;;;;;;;;;;;;;5093842;28;20003;-71
2023/09/13 16:31:22;;;;;;;;;;;;;;;;;;5093890;28;19916;-72
2023/09/13 16:33:48;;;;;;;;;;;;;;;;;;5101651;28;19919;-75
2023/09/13 16:36:13;;;;;;;;;;;;;;;;;;5095672;28;20424;-75
2023/09/13 16:38:39;;;;;;;;;;;;;;;;;;5113994;28;19908;-73